createdAt,value
2019-01-09T00:01:00.906Z,1.50
2019-01-09T00:03:32.289Z,1.50
2019-01-09T00:06:02.358Z,1.50
2019-01-09T00:08:32.563Z,1.50
2019-01-09T00:11:02.694Z,1.50
2019-01-09T00:13:32.906Z,1.60
2019-01-09T00:16:03.018Z,1.50
2019-01-09T00:18:34.280Z,1.50
2019-01-09T00:21:04.382Z,1.60
2019-01-09T00:23:34.658Z,1.60
2019-01-09T00:26:04.738Z,1.60
2019-01-09T00:28:34.999Z,1.60
2019-01-09T00:31:05.165Z,1.60
2019-01-09T00:33:35.286Z,1.60
2019-01-09T00:36:05.434Z,1.60
2019-01-09T00:38:35.666Z,1.60
2019-01-09T00:41:05.805Z,1.50
2019-01-09T00:43:36.016Z,1.60
2019-01-09T00:46:06.076Z,1.50
2019-01-09T00:48:36.201Z,1.50
2019-01-09T00:51:06.422Z,1.50
2019-01-09T00:53:36.600Z,1.50
2019-01-09T00:56:06.741Z,1.50
2019-01-09T00:58:36.910Z,1.50
2019-01-09T01:01:07.028Z,1.50
2019-01-09T01:04:00.014Z,1.60
2019-01-09T01:07:07.377Z,1.50
2019-01-09T01:10:18.858Z,1.50
2019-01-09T01:13:07.562Z,1.50
2019-01-09T01:16:34.472Z,1.50
2019-01-09T01:19:59.900Z,1.50
2019-01-09T01:23:03.650Z,1.50
2019-01-09T01:26:03.950Z,1.50
2019-01-09T01:29:12.300Z,1.50
2019-01-09T01:32:21.674Z,1.50
2019-01-09T01:35:18.837Z,1.40
2019-01-09T01:38:21.228Z,1.50
2019-01-09T01:41:07.367Z,1.40
2019-01-09T01:43:50.074Z,1.40
2019-01-09T01:47:00.643Z,1.40
2019-01-09T01:50:02.401Z,1.30
2019-01-09T01:52:49.768Z,1.30
2019-01-09T01:56:10.035Z,1.30
2019-01-09T01:59:06.568Z,1.30
2019-01-09T02:02:41.624Z,1.10
2019-01-09T02:05:48.917Z,1.20
2019-01-09T02:08:41.064Z,1.20
2019-01-09T02:11:42.290Z,1.10
2019-01-09T02:14:36.789Z,1.10
2019-01-09T02:17:50.546Z,1.10
2019-01-09T02:21:17.428Z,1.00
2019-01-09T02:24:27.612Z,1.00
2019-01-09T02:27:27.651Z,1.00
2019-01-09T02:30:45.093Z,0.90
2019-01-09T02:33:15.230Z,0.90
2019-01-09T02:35:45.350Z,0.90
2019-01-09T02:38:15.508Z,0.80
2019-01-09T02:40:45.564Z,0.90
2019-01-09T02:43:15.700Z,0.90
2019-01-09T02:45:45.898Z,0.80
2019-01-09T02:48:16.127Z,0.80
2019-01-09T02:50:46.297Z,0.90
2019-01-09T02:53:16.504Z,0.90
2019-01-09T02:55:46.652Z,0.90
2019-01-09T02:58:16.862Z,0.80
2019-01-09T03:00:47.033Z,0.80
2019-01-09T03:03:17.198Z,0.80
2019-01-09T03:05:47.478Z,0.80
2019-01-09T03:08:17.704Z,0.90
2019-01-09T03:10:47.905Z,0.80
2019-01-09T03:13:18.051Z,0.80
2019-01-09T03:15:48.201Z,0.80
2019-01-09T03:18:18.448Z,0.80
2019-01-09T03:20:48.612Z,0.80
2019-01-09T03:23:18.756Z,0.80
2019-01-09T03:25:48.957Z,0.80
2019-01-09T03:28:19.189Z,0.80
2019-01-09T03:30:49.341Z,0.80
2019-01-09T03:33:19.508Z,0.80
2019-01-09T03:35:49.635Z,0.80
2019-01-09T03:38:19.851Z,0.80
2019-01-09T03:40:49.999Z,0.80
2019-01-09T03:43:20.206Z,0.80
2019-01-09T03:45:50.394Z,0.80
2019-01-09T03:48:20.599Z,0.80
2019-01-09T03:50:50.846Z,0.80
2019-01-09T03:53:22.055Z,0.80
2019-01-09T03:55:52.096Z,0.80
2019-01-09T03:58:22.187Z,0.80
2019-01-09T04:00:52.212Z,0.90
2019-01-09T04:03:25.047Z,0.80
2019-01-09T04:05:55.219Z,0.80
2019-01-09T04:08:25.371Z,0.80
2019-01-09T04:10:55.557Z,0.80
2019-01-09T04:13:25.701Z,0.80
2019-01-09T04:15:55.839Z,0.80
2019-01-09T04:18:26.053Z,0.80
2019-01-09T04:20:56.218Z,0.80
2019-01-09T04:23:26.350Z,0.80
2019-01-09T04:25:56.549Z,0.80
2019-01-09T04:28:26.715Z,0.80
2019-01-09T04:30:56.895Z,0.80
2019-01-09T04:33:27.111Z,0.70
2019-01-09T04:35:57.279Z,0.80
2019-01-09T04:38:27.444Z,0.80
2019-01-09T04:40:57.521Z,0.80
2019-01-09T04:43:27.687Z,0.80
2019-01-09T04:45:57.914Z,0.70
2019-01-09T04:48:27.979Z,0.80
2019-01-09T04:50:58.358Z,0.80
2019-01-09T04:53:28.529Z,0.70
2019-01-09T04:55:58.729Z,0.70
2019-01-09T04:58:28.953Z,0.70
2019-01-09T05:00:59.157Z,0.80
2019-01-09T05:03:29.489Z,0.80
2019-01-09T05:06:00.647Z,0.70
2019-01-09T05:08:30.797Z,0.70
2019-01-09T05:11:01.000Z,0.80
2019-01-09T05:13:31.204Z,0.80
2019-01-09T05:16:01.443Z,0.80
2019-01-09T05:18:31.575Z,0.80
2019-01-09T05:21:01.757Z,0.80
2019-01-09T05:23:31.867Z,0.70
2019-01-09T05:26:02.103Z,0.80
2019-01-09T05:28:32.317Z,0.80
2019-01-09T05:31:07.335Z,0.80
2019-01-09T05:33:34.310Z,0.70
2019-01-09T05:36:04.493Z,0.80
2019-01-09T05:38:34.627Z,0.70
2019-01-09T05:41:04.975Z,0.80
2019-01-09T05:43:35.111Z,0.80
2019-01-09T05:46:05.327Z,0.80
2019-01-09T05:48:35.473Z,0.70
2019-01-09T05:51:05.672Z,0.80
2019-01-09T05:53:35.712Z,0.70
2019-01-09T05:56:06.068Z,0.70
2019-01-09T05:58:36.195Z,0.70
2019-01-09T06:01:06.444Z,0.70
2019-01-09T06:03:36.624Z,0.70
2019-01-09T06:06:06.838Z,0.60
2019-01-09T06:08:36.980Z,0.70
2019-01-09T06:11:07.180Z,0.70
2019-01-09T06:13:37.442Z,0.70
2019-01-09T06:16:07.591Z,0.70
2019-01-09T06:18:37.861Z,0.70
2019-01-09T06:21:08.051Z,0.70
2019-01-09T06:23:38.210Z,0.70
2019-01-09T06:26:08.383Z,0.70
2019-01-09T06:28:38.518Z,0.70
2019-01-09T06:31:08.702Z,0.70
2019-01-09T06:33:38.893Z,0.60
2019-01-09T06:36:09.115Z,0.60
2019-01-09T06:38:39.245Z,0.70
2019-01-09T06:41:09.373Z,0.70
2019-01-09T06:43:39.611Z,0.70
2019-01-09T06:46:09.827Z,0.50
2019-01-09T06:48:40.040Z,0.50
2019-01-09T06:51:10.253Z,0.50
2019-01-09T06:53:40.441Z,0.50
2019-01-09T06:56:10.603Z,0.50
2019-01-09T06:58:40.682Z,0.50
2019-01-09T07:01:10.796Z,0.50
2019-01-09T07:03:40.899Z,0.50
2019-01-09T07:06:12.148Z,0.60
2019-01-09T07:08:42.482Z,0.60
2019-01-09T07:11:12.668Z,0.50
2019-01-09T07:13:42.822Z,0.50
2019-01-09T07:16:13.049Z,0.50
2019-01-09T07:18:43.203Z,0.50
2019-01-09T07:21:13.476Z,0.50
2019-01-09T07:23:43.677Z,0.60
2019-01-09T07:26:15.738Z,0.60
2019-01-09T07:28:45.810Z,0.60
2019-01-09T07:31:16.005Z,0.60
2019-01-09T07:33:47.952Z,0.60
2019-01-09T07:36:18.139Z,0.60
2019-01-09T07:38:48.222Z,0.60
2019-01-09T07:41:18.696Z,0.60
2019-01-09T07:43:49.924Z,0.60
2019-01-09T07:46:20.220Z,0.60
2019-01-09T07:48:50.298Z,0.50
2019-01-09T07:51:20.499Z,0.50
2019-01-09T07:53:50.717Z,0.50
2019-01-09T07:56:20.941Z,0.50
2019-01-09T07:58:51.090Z,0.50
2019-01-09T08:01:21.304Z,0.50
2019-01-09T08:03:52.462Z,0.50
2019-01-09T08:06:22.680Z,0.60
2019-01-09T08:08:52.811Z,0.60
2019-01-09T08:11:22.938Z,0.60
2019-01-09T08:13:52.994Z,0.60
2019-01-09T08:16:23.367Z,0.60
2019-01-09T08:18:53.670Z,0.70
